Terminal Aerodrome Forecast
Issued by NWS

Home | Current Version | Previous Version | Text Only | Print | Product List | Glossary On
Versions: 1 2 3 4 5 6 7 8 9 10 11 12 13 14 15 16 17 18 19 20 21
000
FTUS44 KMAF 301100
TAFCNM
TAF
KCNM 301120Z 3012/3112 06007KT P6SM -RA OVC040
     FM301500 07007KT 6SM -RA OVC025
      TEMPO 3015/3018 3SM -RASNPL BR OVC009
     FM302100 08006KT 5SM -RA BR OVC030=

USA.gov is the U.S. government's official web portal to all federal, state and local government web resources and services.